Time;durP1;ratioP1;P1;durP2;ratioP2;P2;SDS_P1;SDS_P2;PMS_P1;PMS_P2;Temp;Humidity;BMP_temperature;BMP_pressure;BME280_temperature;BME280_humidity;BME280_pressure;Samples;Min_cycle;Max_cycle;Signal;HPM_P1;HPM_P2
2021/11/23 00:02:03;;;;;;;21.57;13.43;;;;;-0.30;102570.00;;;;10517552;28;20218;-77
2021/11/23 00:07:14;;;;;;;22.07;13.50;;;;;-0.30;102575.00;;;;10505483;28;20679;-77
2021/11/23 00:12:16;;;;;;;17.90;13.20;;;;;-0.40;102560.00;;;;10503349;28;20243;-77
2021/11/23 00:17:18;;;;;;;21.70;13.93;;;;;-0.50;102563.00;;;;10557994;28;20617;-77
2021/11/23 00:22:20;;;;;;;20.07;12.90;;;;;-0.50;102583.00;;;;10513549;28;20245;-77
2021/11/23 00:27:22;;;;;;;18.77;13.60;;;;;-0.50;102563.00;;;;10501159;28;20189;-77
2021/11/23 00:32:24;;;;;;;18.70;13.07;;;;;-0.60;102569.00;;;;10496619;28;20216;-77
2021/11/23 00:37:26;;;;;;;17.33;12.77;;;;;-0.70;102567.00;;;;10493960;28;20255;-77
2021/11/23 00:42:28;;;;;;;20.47;13.07;;;;;-0.70;102581.00;;;;10475294;28;20564;-77
2021/11/23 00:47:30;;;;;;;19.00;12.73;;;;;-0.70;102575.00;;;;10457865;28;20241;-77
2021/11/23 00:52:33;;;;;;;16.73;12.30;;;;;-0.80;102569.00;;;;10485425;28;20250;-77
2021/11/23 00:57:35;;;;;;;20.93;12.50;;;;;-0.70;102578.00;;;;10480135;28;20652;-77
2021/11/23 01:02:37;;;;;;;22.83;13.07;;;;;-0.80;102575.00;;;;10494875;28;20641;-77
2021/11/23 01:07:39;;;;;;;22.30;13.93;;;;;-0.80;102573.00;;;;10506941;28;20197;-77
2021/11/23 01:12:41;;;;;;;19.63;13.73;;;;;-0.80;102576.00;;;;10521017;28;20213;-77
2021/11/23 01:17:44;;;;;;;22.27;15.30;;;;;-0.80;102575.00;;;;10494568;28;20220;-77
2021/11/23 01:22:46;;;;;;;23.23;14.87;;;;;-0.80;102555.00;;;;10510557;28;20254;-77
2021/11/23 01:27:48;;;;;;;22.27;14.57;;;;;-0.80;102545.00;;;;10477516;28;20193;-77
2021/11/23 01:32:50;;;;;;;19.53;14.23;;;;;-0.80;102542.00;;;;10505498;28;20216;-77
2021/11/23 01:37:52;;;;;;;22.73;14.30;;;;;-0.90;102541.00;;;;10472968;28;20205;-77
2021/11/23 01:42:54;;;;;;;19.53;14.67;;;;;-0.90;102546.00;;;;10454258;28;20181;-77
2021/11/23 01:47:56;;;;;;;20.73;15.57;;;;;-0.90;102532.00;;;;10488583;28;20239;-77
2021/11/23 01:53:00;;;;;;;22.70;15.30;;;;;-1.00;102539.00;;;;10469922;28;20206;-77
2021/11/23 01:58:07;;;;;;;21.03;14.77;;;;;-1.00;102541.00;;;;10462530;28;20255;-77
2021/11/23 02:03:10;;;;;;;26.77;14.87;;;;;-1.00;102557.00;;;;10523082;28;20188;-77
2021/11/23 02:08:12;;;;;;;23.07;15.13;;;;;-1.00;102558.00;;;;10516916;28;20277;-77
2021/11/23 02:13:14;;;;;;;22.50;14.50;;;;;-1.10;102552.00;;;;10492776;28;20193;-77
2021/11/23 02:18:19;;;;;;;23.00;14.53;;;;;-1.10;102557.00;;;;10508854;28;20196;-77
2021/11/23 02:23:22;;;;;;;22.23;15.80;;;;;-1.10;102549.00;;;;10507793;28;20193;-77
2021/11/23 02:28:24;;;;;;;23.57;15.47;;;;;-1.00;102555.00;;;;10492083;28;20192;-77
2021/11/23 02:33:28;;;;;;;19.83;14.73;;;;;-1.00;102541.00;;;;10503365;28;20269;-77
2021/11/23 02:38:32;;;;;;;22.10;15.83;;;;;-1.00;102545.00;;;;10496572;28;20671;-77
2021/11/23 02:43:39;;;;;;;21.20;14.27;;;;;-1.00;102533.00;;;;10491027;28;20200;-77
2021/11/23 02:48:42;;;;;;;26.37;16.40;;;;;-1.00;102532.00;;;;10475485;28;20193;-77
2021/11/23 02:53:46;;;;;;;24.00;15.13;;;;;-1.00;102530.00;;;;10473954;28;20259;-77
2021/11/23 02:58:50;;;;;;;21.27;13.43;;;;;-1.00;102524.00;;;;10507205;28;20177;-77
2021/11/23 03:03:55;;;;;;;21.60;14.80;;;;;-1.10;102517.00;;;;10513500;28;20599;-77
2021/11/23 03:08:57;;;;;;;19.43;14.53;;;;;-1.10;102524.00;;;;10494217;28;20613;-77
2021/11/23 03:13:59;;;;;;;21.57;15.27;;;;;-1.10;102528.00;;;;10489453;28;20202;-77
2021/11/23 03:19:01;;;;;;;21.53;14.03;;;;;-1.10;102533.00;;;;10511966;28;20195;-77
2021/11/23 03:24:03;;;;;;;25.83;15.57;;;;;-1.20;102535.00;;;;10530788;28;20197;-77
2021/11/23 03:29:05;;;;;;;20.13;14.57;;;;;-1.20;102523.00;;;;10494887;28;20560;-77
2021/11/23 03:34:07;;;;;;;20.93;14.60;;;;;-1.20;102530.00;;;;10486626;28;20220;-76
2021/11/23 03:39:09;;;;;;;22.30;16.23;;;;;-1.20;102530.00;;;;10466851;28;20255;-77
2021/11/23 03:44:11;;;;;;;21.87;14.47;;;;;-1.20;102542.00;;;;10504281;28;20189;-77
2021/11/23 03:49:13;;;;;;;25.57;15.93;;;;;-1.20;102535.00;;;;10481758;28;20690;-77
2021/11/23 03:54:15;;;;;;;22.33;15.80;;;;;-1.20;102527.00;;;;10504956;28;20194;-77
2021/11/23 03:59:18;;;;;;;23.50;16.17;;;;;-1.20;102534.00;;;;10499136;28;20647;-77
2021/11/23 04:04:20;;;;;;;21.23;16.00;;;;;-1.20;102523.00;;;;10504338;28;20231;-77
2021/11/23 04:09:22;;;;;;;24.53;16.43;;;;;-1.20;102533.00;;;;10504299;28;20192;-78
2021/11/23 04:14:23;;;;;;;23.90;16.37;;;;;-1.20;102520.00;;;;10471874;28;20262;-77
2021/11/23 04:19:28;;;;;;;23.97;15.77;;;;;-1.10;102529.00;;;;10487727;28;20185;-77
2021/11/23 04:24:30;;;;;;;24.13;15.43;;;;;-1.10;102526.00;;;;10483108;28;20185;-77
2021/11/23 04:29:34;;;;;;;25.10;16.00;;;;;-1.00;102529.00;;;;10504857;28;20192;-77
2021/11/23 04:34:36;;;;;;;25.67;15.43;;;;;-1.00;102537.00;;;;10505862;28;20213;-77
2021/11/23 04:39:38;;;;;;;22.57;15.53;;;;;-1.00;102531.00;;;;10503874;28;20207;-77
2021/11/23 04:44:40;;;;;;;21.97;15.33;;;;;-1.00;102529.00;;;;10487856;28;20199;-77
2021/11/23 04:49:42;;;;;;;24.53;17.30;;;;;-0.90;102530.00;;;;10480012;28;20192;-77
2021/11/23 04:54:44;;;;;;;24.87;17.33;;;;;-0.90;102537.00;;;;10486985;28;20266;-77
2021/11/23 04:59:46;;;;;;;31.60;17.47;;;;;-0.90;102529.00;;;;10486943;28;20193;-77
2021/11/23 05:04:48;;;;;;;28.37;16.87;;;;;-0.70;102531.00;;;;10510458;28;20197;-77
2021/11/23 05:09:50;;;;;;;22.27;15.63;;;;;-0.60;102540.00;;;;10509082;28;20189;-77
2021/11/23 05:14:52;;;;;;;28.23;18.33;;;;;-0.50;102536.00;;;;10501779;28;20261;-77
2021/11/23 05:19:54;;;;;;;25.07;17.33;;;;;-0.30;102536.00;;;;10489320;28;20205;-76
2021/11/23 05:24:56;;;;;;;25.10;17.83;;;;;-0.20;102522.00;;;;10513950;28;20193;-77
2021/11/23 05:29:59;;;;;;;29.00;19.10;;;;;0.00;102535.00;;;;10476960;28;20216;-77
2021/11/23 05:35:02;;;;;;;26.97;17.90;;;;;0.10;102540.00;;;;10493924;28;20205;-77
2021/11/23 05:40:07;;;;;;;25.00;17.43;;;;;0.20;102537.00;;;;10476270;28;20238;-77
2021/11/23 05:45:11;;;;;;;28.43;19.47;;;;;0.30;102537.00;;;;10493834;28;20193;-77
2021/11/23 05:50:13;;;;;;;35.93;22.43;;;;;0.40;102527.00;;;;10509579;28;20199;-77
2021/11/23 05:55:15;;;;;;;37.77;22.50;;;;;0.50;102538.00;;;;10494267;28;20213;-77
2021/11/23 06:00:17;;;;;;;35.23;23.00;;;;;0.60;102539.00;;;;10509223;28;20193;-77
2021/11/23 06:05:19;;;;;;;37.33;23.63;;;;;0.70;102549.00;;;;10495041;28;20193;-77
2021/11/23 06:10:21;;;;;;;41.97;24.03;;;;;0.80;102554.00;;;;10475780;28;20193;-77
2021/11/23 06:15:24;;;;;;;36.03;22.90;;;;;0.90;102546.00;;;;10518587;28;20185;-77
2021/11/23 06:20:26;;;;;;;29.60;20.63;;;;;1.00;102543.00;;;;10529184;28;20208;-77
2021/11/23 06:25:29;;;;;;;37.43;22.60;;;;;1.20;102550.00;;;;10525049;28;20239;-77
2021/11/23 06:30:31;;;;;;;33.10;21.83;;;;;1.20;102545.00;;;;10474903;28;20228;-77
2021/11/23 06:35:34;;;;;;;37.20;23.00;;;;;1.30;102549.00;;;;10507715;28;20243;-77
2021/11/23 06:40:38;;;;;;;35.20;22.07;;;;;1.30;102559.00;;;;10483556;28;20660;-77
2021/11/23 06:45:40;;;;;;;32.97;21.57;;;;;1.40;102561.00;;;;10543584;28;20238;-77
2021/11/23 06:50:42;;;;;;;33.27;22.10;;;;;1.40;102571.00;;;;10521449;28;20204;-77
2021/11/23 06:55:44;;;;;;;30.70;20.97;;;;;1.50;102575.00;;;;10484742;28;20186;-77
2021/11/23 07:00:46;;;;;;;37.80;23.00;;;;;1.50;102575.00;;;;10474278;28;20185;-77
2021/11/23 07:05:48;;;;;;;35.33;22.97;;;;;1.60;102576.00;;;;10524736;28;20189;-77
2021/11/23 07:10:59;;;;;;;35.67;21.80;;;;;1.70;102579.00;;;;10499356;28;20266;-77
2021/11/23 07:16:02;;;;;;;33.20;21.63;;;;;1.70;102572.00;;;;10458926;28;20211;-77
2021/11/23 07:21:04;;;;;;;31.47;22.03;;;;;1.80;102583.00;;;;10479130;28;20251;-77
2021/11/23 07:26:28;;;;;;;40.93;23.13;;;;;2.00;102592.00;;;;10507369;28;20237;-77
2021/11/23 07:31:30;;;;;;;44.77;29.03;;;;;2.10;102593.00;;;;10507255;28;20214;-77
2021/11/23 07:36:32;;;;;;;36.30;22.60;;;;;2.20;102598.00;;;;10489411;28;20196;-77
2021/11/23 07:41:35;;;;;;;35.63;22.43;;;;;2.30;102601.00;;;;10469902;28;20201;-77
2021/11/23 07:46:37;;;;;;;37.40;21.17;;;;;2.50;102596.00;;;;10478310;28;20192;-77
2021/11/23 07:51:40;;;;;;;36.90;21.77;;;;;2.60;102595.00;;;;10490115;28;20209;-77
2021/11/23 07:56:42;;;;;;;40.53;25.67;;;;;2.80;102602.00;;;;10507405;28;20192;-77
2021/11/23 08:01:44;;;;;;;32.07;22.33;;;;;2.90;102603.00;;;;10532111;28;20192;-77
2021/11/23 08:06:46;;;;;;;34.57;21.93;;;;;3.10;102610.00;;;;10495472;28;20197;-77
2021/11/23 08:11:48;;;;;;;32.07;22.63;;;;;3.20;102610.00;;;;10488449;28;20249;-77
2021/11/23 08:16:50;;;;;;;38.37;23.97;;;;;3.30;102624.00;;;;10472198;28;20200;-78
2021/11/23 08:21:52;;;;;;;39.73;21.67;;;;;3.50;102622.00;;;;10487430;28;20691;-77
2021/11/23 08:26:58;;;;;;;38.93;23.10;;;;;3.60;102624.00;;;;10538539;28;20566;-77
2021/11/23 08:32:01;;;;;;;38.33;24.30;;;;;3.70;102628.00;;;;10483261;28;20270;-77
2021/11/23 08:37:03;;;;;;;42.50;23.83;;;;;3.80;102629.00;;;;10488929;28;20196;-77
2021/11/23 08:42:06;;;;;;;35.87;22.87;;;;;3.90;102635.00;;;;10499091;28;20232;-77
2021/11/23 08:47:08;;;;;;;36.10;23.07;;;;;4.10;102642.00;;;;10523741;28;20292;-77
2021/11/23 08:52:11;;;;;;;33.23;20.37;;;;;4.30;102657.00;;;;10487987;28;20206;-77
2021/11/23 08:57:19;;;;;;;33.50;20.43;;;;;4.50;102664.00;;;;10491982;28;20216;-77
2021/11/23 09:02:22;;;;;;;31.20;20.43;;;;;4.50;102674.00;;;;10511524;28;20185;-78
2021/11/23 09:07:24;;;;;;;30.47;21.53;;;;;4.60;102679.00;;;;10503308;28;20268;-78
2021/11/23 09:12:26;;;;;;;34.07;20.77;;;;;4.80;102668.00;;;;10495378;28;20205;-78
2021/11/23 09:17:28;;;;;;;28.20;19.57;;;;;5.00;102668.00;;;;10500871;28;20229;-77
2021/11/23 09:22:31;;;;;;;33.43;22.73;;;;;5.40;102669.00;;;;10515928;28;20193;-77
2021/11/23 09:27:33;;;;;;;36.83;21.50;;;;;5.50;102676.00;;;;10475063;28;20201;-78
2021/11/23 09:32:35;;;;;;;36.63;21.57;;;;;5.70;102677.00;;;;10494348;28;20271;-77
2021/11/23 09:37:37;;;;;;;36.17;20.73;;;;;5.80;102685.00;;;;10473466;28;20193;-77
2021/11/23 09:42:39;;;;;;;26.30;19.70;;;;;5.90;102684.00;;;;10510620;28;20181;-78
2021/11/23 09:47:42;;;;;;;31.47;20.13;;;;;5.80;102694.00;;;;10511942;28;20691;-78
2021/11/23 09:52:44;;;;;;;32.10;19.33;;;;;5.80;102699.00;;;;10515263;28;20212;-78
2021/11/23 09:57:46;;;;;;;29.50;19.27;;;;;5.90;102689.00;;;;10487539;28;20193;-77
2021/11/23 10:02:49;;;;;;;35.30;20.13;;;;;6.10;102690.00;;;;10470759;28;20192;-77
2021/11/23 10:07:51;;;;;;;37.00;20.57;;;;;6.40;102684.00;;;;10497985;28;20207;-77
2021/11/23 10:12:58;;;;;;;32.20;19.60;;;;;6.50;102689.00;;;;10469467;28;20212;-78
2021/11/23 10:18:16;;;;;;;34.67;18.43;;;;;6.70;102685.00;;;;10510109;28;20201;-78
2021/11/23 10:23:28;;;;;;;35.43;18.80;;;;;6.80;102675.00;;;;10469840;28;20185;-78
2021/11/23 10:28:31;;;;;;;28.93;17.00;;;;;7.00;102671.00;;;;10514795;28;20979;-77
2021/11/23 10:33:35;;;;;;;32.50;18.10;;;;;7.20;102674.00;;;;10520030;28;20205;-78
2021/11/23 10:38:39;;;;;;;30.27;17.27;;;;;7.40;102671.00;;;;10508944;28;20224;-78
2021/11/23 10:43:44;;;;;;;31.90;16.43;;;;;7.60;102667.00;;;;10506460;28;20189;-78
2021/11/23 10:48:57;;;;;;;25.97;15.53;;;;;7.80;102665.00;;;;10526659;28;20656;-77
2021/11/23 10:54:14;;;;;;;28.43;14.97;;;;;7.90;102650.00;;;;10493015;28;20204;-77
2021/11/23 10:59:16;;;;;;;28.70;14.60;;;;;8.00;102661.00;;;;10446141;28;20595;-78
2021/11/23 11:04:19;;;;;;;24.30;14.70;;;;;8.00;102640.00;;;;10466349;28;20177;-77
2021/11/23 11:09:21;;;;;;;29.77;15.60;;;;;7.90;102642.00;;;;10468373;28;20656;-77
2021/11/23 11:14:25;;;;;;;28.97;17.33;;;;;7.60;102635.00;;;;10508502;28;20209;-77
2021/11/23 11:19:42;;;;;;;27.50;16.20;;;;;7.30;102640.00;;;;10491389;28;20622;-77
2021/11/23 11:30:42;;;;;;;29.00;17.47;;;;;7.20;102626.00;;;;10507255;28;20200;-77
2021/11/23 11:35:46;;;;;;;24.60;17.07;;;;;7.40;102618.00;;;;10506831;28;20722;-77
2021/11/23 11:40:48;;;;;;;32.17;17.83;;;;;7.70;102604.00;;;;10465511;28;20215;-77
2021/11/23 11:45:52;;;;;;;42.70;27.53;;;;;7.90;102607.00;;;;10466320;28;20200;-78
2021/11/23 11:51:03;;;;;;;33.10;18.40;;;;;7.80;102600.00;;;;10465459;28;20195;-78
2021/11/23 11:56:05;;;;;;;38.13;20.17;;;;;7.70;102599.00;;;;10465012;28;20209;-78
2021/11/23 12:01:25;;;;;;;32.00;19.50;;;;;7.90;102586.00;;;;10448351;28;20205;-77
2021/11/23 12:06:55;;;;;;;28.00;17.70;;;;;8.10;102569.00;;;;10480669;28;20204;-78
2021/11/23 12:12:23;;;;;;;35.83;19.17;;;;;8.40;102572.00;;;;10444477;28;20206;-78
2021/11/23 12:17:51;;;;;;;31.93;17.30;;;;;8.60;102562.00;;;;10485752;28;20236;-77
2021/11/23 12:23:13;;;;;;;31.70;17.37;;;;;8.50;102563.00;;;;10517383;28;20227;-77
2021/11/23 12:28:15;;;;;;;36.60;19.07;;;;;9.00;102563.00;;;;10481576;28;20263;-77
2021/11/23 12:33:18;;;;;;;42.90;19.97;;;;;9.20;102564.00;;;;10504680;28;20219;-78
2021/11/23 12:38:29;;;;;;;32.97;18.03;;;;;9.30;102562.00;;;;10456981;28;20209;-77
2021/11/23 12:43:36;;;;;;;47.37;18.37;;;;;9.20;102549.00;;;;10527721;28;20189;-77
2021/11/23 12:48:40;;;;;;;34.63;16.77;;;;;8.90;102538.00;;;;10498776;28;20216;-77
2021/11/23 12:53:52;;;;;;;43.23;16.47;;;;;8.90;102537.00;;;;10471688;28;20232;-78
2021/11/23 12:58:54;;;;;;;31.70;16.40;;;;;8.90;102535.00;;;;10516870;28;20562;-77
2021/11/23 13:03:59;;;;;;;31.17;16.47;;;;;8.80;102535.00;;;;10512828;28;20652;-78
2021/11/23 13:09:06;;;;;;;32.33;16.97;;;;;8.80;102526.00;;;;10518677;28;20196;-78
2021/11/23 13:14:12;;;;;;;27.67;17.23;;;;;8.80;102523.00;;;;10529476;28;20215;-78
2021/11/23 13:19:14;;;;;;;38.13;18.80;;;;;8.70;102521.00;;;;10541173;28;20181;-78
2021/11/23 13:24:16;;;;;;;34.23;18.23;;;;;8.80;102510.00;;;;10491981;28;20185;-78
2021/11/23 13:29:32;;;;;;;27.00;17.67;;;;;8.90;102512.00;;;;10480108;28;20208;-77
2021/11/23 13:34:34;;;;;;;36.70;17.33;;;;;9.20;102511.00;;;;10488061;28;20221;-77
2021/11/23 13:39:41;;;;;;;28.93;16.20;;;;;9.30;102514.00;;;;10531773;28;20204;-78
2021/11/23 13:44:43;;;;;;;32.17;17.13;;;;;9.30;102508.00;;;;10537497;28;20199;-77
2021/11/23 13:49:46;;;;;;;27.73;17.20;;;;;9.20;102497.00;;;;10534035;28;20199;-78
2021/11/23 13:54:55;;;;;;;37.47;18.97;;;;;9.20;102507.00;;;;10467368;28;20205;-78
2021/11/23 14:00:21;;;;;;;27.93;16.40;;;;;9.20;102493.00;;;;10485039;28;20193;-78
2021/11/23 14:05:38;;;;;;;26.50;16.03;;;;;9.00;102483.00;;;;10518292;28;20203;-77
2021/11/23 14:10:48;;;;;;;25.57;15.73;;;;;8.80;102487.00;;;;10460058;28;20227;-78
2021/11/23 14:15:52;;;;;;;29.83;16.37;;;;;8.50;102483.00;;;;10453144;28;20206;-78
2021/11/23 14:21:04;;;;;;;32.50;16.97;;;;;8.30;102478.00;;;;10502209;28;20197;-77
2021/11/23 14:26:20;;;;;;;31.83;16.33;;;;;8.30;102482.00;;;;10469741;28;20645;-77
2021/11/23 14:31:26;;;;;;;29.43;17.40;;;;;8.90;102471.00;;;;10501469;28;20239;-78
2021/11/23 14:36:37;;;;;;;41.57;17.80;;;;;8.90;102470.00;;;;10507425;28;20254;-77
2021/11/23 14:41:40;;;;;;;36.97;17.97;;;;;8.60;102475.00;;;;10531637;28;20207;-77
2021/11/23 14:46:43;;;;;;;36.73;18.13;;;;;8.60;102465.00;;;;10487239;28;20564;-77
2021/11/23 14:51:45;;;;;;;43.00;19.80;;;;;8.70;102467.00;;;;10481100;28;20197;-78
2021/11/23 14:56:48;;;;;;;43.93;20.87;;;;;8.70;102464.00;;;;10497480;28;20207;-78
2021/11/23 15:01:50;;;;;;;47.00;21.03;;;;;8.70;102465.00;;;;10493462;28;20273;-77
2021/11/23 15:06:52;;;;;;;54.40;21.13;;;;;8.60;102455.00;;;;10464468;28;20710;-77
2021/11/23 15:11:55;;;;;;;50.10;22.17;;;;;8.50;102449.00;;;;10498624;28;20647;-78
2021/11/23 15:16:57;;;;;;;54.03;21.40;;;;;8.40;102445.00;;;;10515149;28;20664;-78
2021/11/23 15:21:59;;;;;;;58.77;22.83;;;;;8.20;102446.00;;;;10492011;28;20204;-78
2021/11/23 15:27:03;;;;;;;57.57;25.47;;;;;8.00;102440.00;;;;10470919;28;20193;-77
2021/11/23 15:32:05;;;;;;;54.03;24.57;;;;;7.90;102442.00;;;;10509705;28;20208;-78
2021/11/23 15:37:07;;;;;;;57.17;25.57;;;;;7.90;102441.00;;;;10485155;28;20207;-78
2021/11/23 15:42:10;;;;;;;61.67;28.23;;;;;7.80;102433.00;;;;10439252;28;20198;-78
2021/11/23 15:47:19;;;;;;;58.30;26.13;;;;;7.70;102434.00;;;;10506473;28;20199;-77
2021/11/23 15:52:25;;;;;;;69.70;27.77;;;;;7.70;102437.00;;;;10464946;28;20672;-77
2021/11/23 15:57:27;;;;;;;70.93;28.13;;;;;7.60;102435.00;;;;10504267;28;20246;-77
2021/11/23 16:02:30;;;;;;;76.20;28.00;;;;;7.60;102429.00;;;;10465052;28;20264;-77
2021/11/23 16:07:32;;;;;;;110.43;46.27;;;;;7.50;102417.00;;;;10515486;28;20193;-77
2021/11/23 16:12:34;;;;;;;69.63;31.83;;;;;7.50;102412.00;;;;10480467;28;20608;-79
2021/11/23 16:17:37;;;;;;;84.27;32.97;;;;;7.40;102403.00;;;;10460185;28;20636;-78
2021/11/23 16:22:39;;;;;;;107.70;42.27;;;;;7.40;102407.00;;;;10482352;28;20667;-77
2021/11/23 16:27:43;;;;;;;81.80;30.20;;;;;7.40;102404.00;;;;10486712;28;20201;-78
2021/11/23 16:32:46;;;;;;;76.57;28.57;;;;;7.30;102412.00;;;;10486220;28;20323;-78
2021/11/23 16:37:49;;;;;;;82.73;31.47;;;;;7.30;102398.00;;;;10471666;28;20200;-77
2021/11/23 16:42:52;;;;;;;92.23;32.13;;;;;7.20;102399.00;;;;10461212;28;20256;-78
2021/11/23 16:47:54;;;;;;;93.03;33.17;;;;;7.20;102407.00;;;;10502302;28;20199;-78
2021/11/23 16:52:56;;;;;;;108.07;35.87;;;;;7.20;102404.00;;;;10488867;28;20212;-78
2021/11/23 16:57:58;;;;;;;101.83;34.00;;;;;7.30;102417.00;;;;10488330;28;20205;-78
2021/11/23 17:03:02;;;;;;;109.23;40.53;;;;;7.30;102405.00;;;;10501641;28;20272;-78
2021/11/23 17:08:04;;;;;;;96.77;35.17;;;;;7.30;102393.00;;;;10467687;28;20649;-79
2021/11/23 17:13:06;;;;;;;93.70;33.70;;;;;7.20;102394.00;;;;10492380;28;20418;-78
2021/11/23 17:18:08;;;;;;;109.73;37.57;;;;;7.20;102391.00;;;;10521538;28;20196;-78
2021/11/23 17:23:13;;;;;;;95.77;37.27;;;;;7.20;102399.00;;;;10516757;28;20188;-78
2021/11/23 17:28:16;;;;;;;99.17;36.13;;;;;7.20;102408.00;;;;10447621;28;20205;-78
2021/11/23 17:33:18;;;;;;;113.50;38.10;;;;;7.20;102406.00;;;;10493539;28;20220;-78
2021/11/23 17:38:20;;;;;;;102.57;36.10;;;;;7.10;102406.00;;;;10490996;28;20205;-78
2021/11/23 17:43:22;;;;;;;96.23;35.20;;;;;7.10;102399.00;;;;10502529;28;20667;-78
2021/11/23 17:48:24;;;;;;;101.97;35.27;;;;;7.10;102415.00;;;;10482727;28;20279;-78
2021/11/23 17:53:27;;;;;;;104.27;37.23;;;;;7.00;102409.00;;;;10478149;28;20260;-78
2021/11/23 17:58:29;;;;;;;99.63;36.57;;;;;7.00;102409.00;;;;10483211;28;20679;-77
2021/11/23 18:03:33;;;;;;;102.20;36.10;;;;;7.00;102406.00;;;;10507223;28;20188;-78
2021/11/23 18:08:36;;;;;;;95.93;35.63;;;;;7.00;102404.00;;;;10469852;28;20641;-78
2021/11/23 18:13:40;;;;;;;122.57;39.80;;;;;6.90;102413.00;;;;10466328;28;20308;-77
2021/11/23 18:18:42;;;;;;;111.40;41.37;;;;;6.90;102416.00;;;;10489540;28;20659;-78
2021/11/23 18:23:44;;;;;;;106.37;37.97;;;;;6.90;102409.00;;;;10524716;28;20184;-78
2021/11/23 18:28:46;;;;;;;106.30;40.03;;;;;6.90;102404.00;;;;10508718;28;20197;-79
2021/11/23 18:33:48;;;;;;;118.40;40.57;;;;;6.90;102399.00;;;;10509388;28;20213;-78
2021/11/23 18:38:50;;;;;;;115.33;43.17;;;;;6.90;102405.00;;;;10492027;28;20208;-78
2021/11/23 18:43:58;;;;;;;108.63;36.97;;;;;6.80;102404.00;;;;10492023;28;20192;-78
2021/11/23 18:49:00;;;;;;;118.40;36.37;;;;;6.80;102403.00;;;;10492194;28;20534;-78
2021/11/23 18:54:04;;;;;;;116.60;42.27;;;;;6.70;102410.00;;;;10491888;28;20297;-78
2021/11/23 18:59:07;;;;;;;112.43;42.37;;;;;6.70;102411.00;;;;10491377;28;20192;-78
2021/11/23 19:04:09;;;;;;;108.63;40.30;;;;;6.70;102414.00;;;;10474989;28;20189;-78
2021/11/23 19:09:15;;;;;;;117.33;42.60;;;;;6.80;102411.00;;;;10523545;28;20244;-78
2021/11/23 19:14:17;;;;;;;105.00;39.70;;;;;6.80;102417.00;;;;10505675;28;20694;-78
2021/11/23 19:19:23;;;;;;;101.00;38.60;;;;;6.90;102408.00;;;;10490759;28;20189;-78
2021/11/23 19:24:25;;;;;;;93.47;36.13;;;;;6.90;102411.00;;;;10507117;28;20311;-78
2021/11/23 19:29:27;;;;;;;96.40;35.17;;;;;6.90;102416.00;;;;10506533;28;20266;-78
2021/11/23 19:34:30;;;;;;;94.47;37.17;;;;;6.90;102415.00;;;;10490721;28;20209;-78
2021/11/23 19:39:32;;;;;;;89.23;36.57;;;;;6.90;102409.00;;;;10517969;28;20200;-78
2021/11/23 19:44:34;;;;;;;107.90;38.37;;;;;7.00;102419.00;;;;10530900;28;20237;-78
2021/11/23 19:49:36;;;;;;;96.73;38.37;;;;;7.00;102418.00;;;;10531732;28;20659;-78
2021/11/23 19:54:41;;;;;;;103.67;41.10;;;;;7.00;102404.00;;;;10466822;28;20214;-78
2021/11/23 19:59:48;;;;;;;104.23;43.97;;;;;7.00;102400.00;;;;10448678;28;20189;-78
2021/11/23 20:04:50;;;;;;;110.23;40.73;;;;;7.00;102411.00;;;;10464142;28;20186;-78
2021/11/23 20:09:53;;;;;;;116.47;41.37;;;;;7.10;102409.00;;;;10447245;28;20193;-78
2021/11/23 20:14:55;;;;;;;119.77;44.43;;;;;7.10;102418.00;;;;10480581;28;20213;-78
2021/11/23 20:19:57;;;;;;;125.20;43.70;;;;;7.10;102421.00;;;;10464032;28;20201;-78
2021/11/23 20:25:00;;;;;;;122.43;42.43;;;;;7.10;102423.00;;;;10462828;28;20236;-78
2021/11/23 20:30:04;;;;;;;115.53;40.07;;;;;7.10;102410.00;;;;10497109;28;20217;-78
2021/11/23 20:35:06;;;;;;;113.43;41.27;;;;;7.10;102408.00;;;;10479762;28;20256;-78
2021/11/23 20:40:09;;;;;;;110.47;40.10;;;;;7.10;102409.00;;;;10468846;28;20215;-78
2021/11/23 20:45:13;;;;;;;93.83;39.07;;;;;7.10;102409.00;;;;10455606;28;20190;-77
2021/11/23 20:50:16;;;;;;;105.90;39.10;;;;;7.20;102410.00;;;;10440115;28;20215;-77
2021/11/23 20:55:18;;;;;;;111.03;42.47;;;;;7.20;102409.00;;;;10471193;28;20218;-77
2021/11/23 21:00:20;;;;;;;119.47;42.27;;;;;7.20;102412.00;;;;10455396;28;20189;-78
2021/11/23 21:05:22;;;;;;;109.97;40.37;;;;;7.20;102406.00;;;;10455411;28;20194;-78
2021/11/23 21:10:24;;;;;;;122.57;45.20;;;;;7.30;102404.00;;;;10439672;28;20204;-78
2021/11/23 21:15:26;;;;;;;133.03;43.83;;;;;7.30;102397.00;;;;10498477;28;20197;-78
2021/11/23 21:20:29;;;;;;;118.13;41.40;;;;;7.30;102387.00;;;;10495435;28;20730;-78
2021/11/23 21:25:31;;;;;;;124.87;41.63;;;;;7.30;102375.00;;;;10514368;28;20181;-78
2021/11/23 21:30:33;;;;;;;106.20;42.23;;;;;7.30;102381.00;;;;10531700;28;20216;-77
2021/11/23 21:35:36;;;;;;;117.70;43.70;;;;;7.40;102378.00;;;;10526543;28;20211;-77
2021/11/23 21:40:40;;;;;;;121.03;43.57;;;;;7.40;102374.00;;;;10521017;28;20647;-78
2021/11/23 21:50:45;;;;;;;121.63;44.63;;;;;7.40;102358.00;;;;10548965;28;20196;-77
2021/11/23 21:55:48;;;;;;;141.33;50.33;;;;;7.40;102359.00;;;;10502166;28;20217;-77
2021/11/23 22:00:51;;;;;;;123.17;45.10;;;;;7.40;102356.00;;;;10432829;28;20208;-77
2021/11/23 22:05:54;;;;;;;112.87;42.80;;;;;7.40;102358.00;;;;10483874;28;20231;-77
2021/11/23 22:10:58;;;;;;;117.03;42.27;;;;;7.40;102364.00;;;;10521303;28;20667;-77
2021/11/23 22:16:01;;;;;;;103.77;41.47;;;;;7.40;102364.00;;;;10531896;28;20251;-77
2021/11/23 22:21:06;;;;;;;106.03;41.10;;;;;7.40;102355.00;;;;10548734;28;20612;-77
2021/11/23 22:26:10;;;;;;;100.03;38.53;;;;;7.40;102360.00;;;;10531105;28;20605;-78
2021/11/23 22:31:12;;;;;;;111.30;39.13;;;;;7.40;102354.00;;;;10547476;28;20208;-78
2021/11/23 22:36:14;;;;;;;112.67;39.80;;;;;7.40;102355.00;;;;10548451;28;20208;-78
2021/11/23 22:41:16;;;;;;;112.20;39.47;;;;;7.40;102354.00;;;;10529443;28;20208;-78
2021/11/23 22:46:18;;;;;;;108.87;39.80;;;;;7.40;102361.00;;;;10489240;28;20189;-78
2021/11/23 22:51:20;;;;;;;93.47;37.83;;;;;7.40;102354.00;;;;10477985;28;20203;-77
2021/11/23 22:56:22;;;;;;;105.60;38.80;;;;;7.30;102342.00;;;;10487999;28;20685;-77
2021/11/23 23:01:24;;;;;;;115.73;39.33;;;;;7.30;102332.00;;;;10504250;28;20193;-78
2021/11/23 23:06:26;;;;;;;127.70;39.03;;;;;7.20;102328.00;;;;10525862;28;20191;-78
2021/11/23 23:11:28;;;;;;;122.10;43.70;;;;;7.20;102340.00;;;;10468218;28;20190;-78
2021/11/23 23:16:30;;;;;;;98.43;39.23;;;;;7.20;102332.00;;;;10462025;28;20568;-77
2021/11/23 23:21:33;;;;;;;103.30;38.63;;;;;7.20;102332.00;;;;10478169;28;20194;-77
2021/11/23 23:26:35;;;;;;;114.90;38.37;;;;;7.20;102326.00;;;;10445554;28;20259;-77
2021/11/23 23:31:37;;;;;;;101.97;36.30;;;;;7.10;102316.00;;;;10474758;28;20711;-77
2021/11/23 23:36:39;;;;;;;94.57;37.00;;;;;7.10;102318.00;;;;10503083;28;20687;-77
2021/11/23 23:41:41;;;;;;;101.33;36.17;;;;;7.10;102309.00;;;;10462570;28;20291;-77
2021/11/23 23:46:43;;;;;;;99.30;36.47;;;;;7.10;102295.00;;;;10460669;28;20709;-77
2021/11/23 23:51:45;;;;;;;100.53;36.50;;;;;7.00;102281.00;;;;10512083;28;20201;-77
2021/11/23 23:56:47;;;;;;;101.77;36.77;;;;;7.00;102291.00;;;;10461176;28;20206;-77
